createdAt,value
2022-10-23T00:00:31.738Z,12.05
2022-10-23T00:01:31.773Z,11.99
2022-10-23T00:02:32.009Z,11.97
2022-10-23T00:03:31.666Z,11.96
2022-10-23T00:04:31.661Z,11.93
2022-10-23T00:05:31.874Z,11.89
2022-10-23T00:06:32.017Z,11.87
2022-10-23T00:07:31.806Z,11.83
2022-10-23T00:08:31.706Z,11.82
2022-10-23T00:09:31.832Z,11.78
2022-10-23T00:10:31.658Z,11.75
2022-10-23T00:11:32.033Z,11.74
2022-10-23T00:12:31.656Z,11.72
2022-10-23T00:13:31.755Z,11.70
2022-10-23T00:14:32.252Z,11.70
2022-10-23T00:15:31.981Z,11.67
2022-10-23T00:16:31.910Z,11.65
2022-10-23T00:17:31.825Z,11.64
2022-10-23T00:18:31.568Z,11.62
2022-10-23T00:19:31.722Z,11.61
2022-10-23T00:20:32.117Z,11.61
2022-10-23T00:21:31.516Z,11.57
2022-10-23T00:22:31.937Z,11.54
2022-10-23T00:23:32.001Z,11.53
2022-10-23T00:24:32.137Z,11.49
2022-10-23T00:25:31.489Z,11.47
2022-10-23T00:26:31.571Z,11.49
2022-10-23T00:27:31.532Z,11.46
2022-10-23T00:28:32.045Z,11.43
2022-10-23T00:29:31.494Z,11.43
2022-10-23T00:30:31.501Z,11.39
2022-10-23T00:31:31.594Z,11.36
2022-10-23T00:33:31.428Z,11.32
2022-10-23T00:34:31.560Z,11.31
2022-10-23T00:35:31.459Z,11.29
2022-10-23T00:36:31.585Z,11.28
2022-10-23T00:37:31.515Z,11.29
2022-10-23T00:38:31.405Z,11.29
2022-10-23T00:39:31.573Z,11.31
2022-10-23T00:40:31.407Z,11.34
2022-10-23T00:41:31.841Z,11.31
2022-10-23T00:42:31.459Z,11.32
2022-10-23T00:43:31.364Z,11.32
2022-10-23T00:44:31.560Z,11.34
2022-10-23T00:45:31.595Z,11.34
2022-10-23T00:46:31.357Z,11.34
2022-10-23T00:47:31.337Z,11.35
2022-10-23T00:48:31.452Z,11.34
2022-10-23T00:49:32.556Z,11.34
2022-10-23T00:50:31.272Z,11.32
2022-10-23T00:51:31.571Z,11.35
2022-10-23T00:52:31.377Z,11.32
2022-10-23T00:53:31.248Z,11.31
2022-10-23T00:54:31.607Z,11.31
2022-10-23T00:55:31.493Z,11.29
2022-10-23T00:56:31.330Z,11.25
2022-10-23T00:57:31.397Z,11.27
2022-10-23T00:58:31.477Z,11.25
2022-10-23T00:59:31.512Z,11.25
2022-10-23T01:00:31.162Z,11.24
2022-10-23T01:01:31.523Z,11.21
2022-10-23T01:02:31.239Z,11.24
2022-10-23T01:03:31.455Z,11.20
2022-10-23T01:04:31.168Z,11.20
2022-10-23T01:05:31.168Z,11.20
2022-10-23T01:06:31.123Z,11.19
2022-10-23T01:07:31.111Z,11.17
2022-10-23T01:08:31.407Z,11.16
2022-10-23T01:09:31.034Z,11.14
2022-10-23T01:10:31.065Z,11.14
2022-10-23T01:11:31.157Z,11.10
2022-10-23T01:12:31.001Z,11.11
2022-10-23T01:13:30.989Z,11.09
2022-10-23T01:14:30.979Z,11.09
2022-10-23T01:15:31.177Z,11.09
2022-10-23T01:16:31.073Z,11.07
2022-10-23T01:17:30.958Z,11.07
2022-10-23T01:18:30.954Z,11.07
2022-10-23T01:19:30.929Z,11.06
2022-10-23T01:20:30.928Z,11.02
2022-10-23T01:21:31.028Z,11.02
2022-10-23T01:22:30.898Z,11.01
2022-10-23T01:23:30.912Z,10.99
2022-10-23T01:24:30.950Z,10.98
2022-10-23T01:25:31.135Z,10.96
2022-10-23T01:26:30.862Z,10.95
2022-10-23T01:27:30.884Z,10.96
2022-10-23T01:28:31.373Z,10.96
2022-10-23T01:29:31.029Z,10.95
2022-10-23T01:30:30.881Z,10.94
2022-10-23T01:31:31.327Z,10.92
2022-10-23T01:32:31.011Z,10.91
2022-10-23T01:33:31.007Z,10.89
2022-10-23T01:34:30.844Z,10.88
2022-10-23T01:35:30.851Z,10.89
2022-10-23T01:36:30.791Z,10.86
2022-10-23T01:37:31.531Z,10.86
2022-10-23T01:38:30.932Z,10.84
2022-10-23T01:39:30.873Z,10.81
2022-10-23T01:40:30.970Z,10.80
2022-10-23T01:41:31.280Z,10.77
2022-10-23T01:42:30.829Z,10.77
2022-10-23T01:43:31.085Z,10.74
2022-10-23T01:44:30.803Z,10.74
2022-10-23T01:45:30.688Z,10.70
2022-10-23T01:46:30.704Z,10.70
2022-10-23T01:47:30.713Z,10.68
2022-10-23T01:48:30.702Z,10.65
2022-10-23T01:49:30.975Z,10.63
2022-10-23T01:50:30.631Z,10.62
2022-10-23T01:51:30.687Z,10.62
2022-10-23T01:52:30.682Z,10.63
2022-10-23T01:53:30.644Z,10.62
2022-10-23T01:54:30.580Z,10.60
2022-10-23T01:55:30.841Z,10.60
2022-10-23T01:56:30.610Z,10.59
2022-10-23T01:57:30.757Z,10.60
2022-10-23T01:58:30.948Z,10.60
2022-10-23T01:59:30.767Z,10.60
2022-10-23T02:00:30.612Z,10.60
2022-10-23T02:01:30.703Z,10.60
2022-10-23T02:02:31.151Z,10.60
2022-10-23T02:03:30.506Z,10.59
2022-10-23T02:04:30.992Z,10.60
2022-10-23T02:05:30.960Z,10.60
2022-10-23T02:06:31.013Z,10.59
2022-10-23T02:07:30.482Z,10.60
2022-10-23T02:08:30.554Z,10.59
2022-10-23T02:09:30.479Z,10.60
2022-10-23T02:10:30.433Z,10.60
2022-10-23T02:11:30.566Z,10.59
2022-10-23T02:12:30.466Z,10.60
2022-10-23T02:13:30.702Z,10.60
2022-10-23T02:14:30.713Z,10.60
2022-10-23T02:15:30.593Z,10.62
2022-10-23T02:16:30.544Z,10.63
2022-10-23T02:17:30.549Z,10.63
2022-10-23T02:18:30.852Z,10.62
2022-10-23T02:19:30.559Z,10.62
2022-10-23T02:20:30.860Z,10.62
2022-10-23T02:21:30.823Z,10.62
2022-10-23T02:22:30.661Z,10.62
2022-10-23T02:23:30.371Z,10.60
2022-10-23T02:24:30.294Z,10.59
2022-10-23T02:25:30.556Z,10.58
2022-10-23T02:26:30.416Z,10.59
2022-10-23T02:27:30.629Z,10.56
2022-10-23T02:28:30.349Z,10.56
2022-10-23T02:29:30.376Z,10.56
2022-10-23T02:30:30.699Z,10.55
2022-10-23T02:31:30.416Z,10.55
2022-10-23T02:32:30.321Z,10.55
2022-10-23T02:33:30.235Z,10.53
2022-10-23T02:34:30.285Z,10.53
2022-10-23T02:35:30.453Z,10.53
2022-10-23T02:36:30.525Z,10.52
2022-10-23T02:37:31.011Z,10.53
2022-10-23T02:38:30.497Z,10.52
2022-10-23T02:39:30.964Z,10.52
2022-10-23T02:40:30.342Z,10.52
2022-10-23T02:41:30.149Z,10.51
2022-10-23T02:42:30.151Z,10.51
2022-10-23T02:43:30.293Z,10.46
2022-10-23T02:44:30.117Z,10.46
2022-10-23T02:45:30.234Z,10.46
2022-10-23T02:46:30.158Z,10.43
2022-10-23T02:47:30.165Z,10.43
2022-10-23T02:48:30.283Z,10.42
2022-10-23T02:49:30.326Z,10.42
2022-10-23T02:50:30.634Z,10.42
2022-10-23T02:51:30.089Z,10.42
2022-10-23T02:52:30.240Z,10.40
2022-10-23T02:53:30.036Z,10.40
2022-10-23T02:54:30.194Z,10.39
2022-10-23T02:55:30.011Z,10.40
2022-10-23T02:56:30.050Z,10.39
2022-10-23T02:57:30.149Z,10.40
2022-10-23T02:58:30.098Z,10.39
2022-10-23T02:59:30.539Z,10.39
2022-10-23T03:00:30.109Z,10.37
2022-10-23T03:01:30.071Z,10.37
2022-10-23T03:03:29.995Z,10.34
2022-10-23T03:04:29.941Z,10.36
2022-10-23T03:05:30.091Z,10.34
2022-10-23T03:06:30.251Z,10.36
2022-10-23T03:07:30.116Z,10.33
2022-10-23T03:08:30.006Z,10.33
2022-10-23T03:09:29.910Z,10.33
2022-10-23T03:10:29.920Z,10.33
2022-10-23T03:11:29.993Z,10.33
2022-10-23T03:12:30.410Z,10.33
2022-10-23T03:13:30.005Z,10.34
2022-10-23T03:14:30.036Z,10.33
2022-10-23T03:15:30.004Z,10.33
2022-10-23T03:16:29.964Z,10.36
2022-10-23T03:17:29.789Z,10.36
2022-10-23T03:18:29.963Z,10.36
2022-10-23T03:19:29.796Z,10.36
2022-10-23T03:20:30.186Z,10.36
2022-10-23T03:21:29.938Z,10.37
2022-10-23T03:22:29.725Z,10.37
2022-10-23T03:23:29.739Z,10.36
2022-10-23T03:24:29.928Z,10.36
2022-10-23T03:25:29.893Z,10.36
2022-10-23T03:26:30.068Z,10.37
2022-10-23T03:27:29.866Z,10.36
2022-10-23T03:28:29.653Z,10.37
2022-10-23T03:29:30.155Z,10.36
2022-10-23T03:30:29.718Z,10.37
2022-10-23T03:31:29.666Z,10.40
2022-10-23T03:32:29.704Z,10.40
2022-10-23T03:33:29.881Z,10.40
2022-10-23T03:34:29.887Z,10.40
2022-10-23T03:35:30.132Z,10.42
2022-10-23T03:36:29.567Z,10.42
2022-10-23T03:37:29.575Z,10.42
2022-10-23T03:38:29.552Z,10.42
2022-10-23T03:39:29.511Z,10.42
2022-10-23T03:40:29.512Z,10.42
2022-10-23T03:41:29.526Z,10.43
2022-10-23T03:42:29.688Z,10.42
2022-10-23T03:43:29.541Z,10.43
2022-10-23T03:44:29.512Z,10.42
2022-10-23T03:45:29.522Z,10.43
2022-10-23T03:46:29.475Z,10.44
2022-10-23T03:47:29.513Z,10.43
2022-10-23T03:48:30.149Z,10.44
2022-10-23T03:49:29.641Z,10.46
2022-10-23T03:50:29.415Z,10.46
2022-10-23T03:51:29.608Z,10.46
2022-10-23T03:52:29.437Z,10.47
2022-10-23T03:53:29.618Z,10.46
2022-10-23T03:54:29.414Z,10.51
2022-10-23T03:55:29.937Z,10.47
2022-10-23T03:56:29.440Z,10.52
2022-10-23T03:57:29.612Z,10.51
2022-10-23T03:58:29.756Z,10.52
2022-10-23T03:59:29.402Z,10.52
2022-10-23T04:00:29.531Z,10.52
2022-10-23T04:01:29.538Z,10.52
2022-10-23T04:02:29.848Z,10.53
2022-10-23T04:03:29.348Z,10.53
2022-10-23T04:04:29.722Z,10.55
2022-10-23T04:05:29.349Z,10.56
2022-10-23T04:06:29.695Z,10.55
2022-10-23T04:07:29.538Z,10.56
2022-10-23T04:08:29.749Z,10.56
2022-10-23T04:09:29.407Z,10.58
2022-10-23T04:10:29.553Z,10.58
2022-10-23T04:11:30.120Z,10.59
2022-10-23T04:12:29.359Z,10.59
2022-10-23T04:13:29.228Z,10.60
2022-10-23T04:14:29.367Z,10.60
2022-10-23T04:15:29.184Z,10.63
2022-10-23T04:16:29.257Z,10.62
2022-10-23T04:17:29.282Z,10.63
2022-10-23T04:18:29.162Z,10.63
2022-10-23T04:19:29.143Z,10.65
2022-10-23T04:20:29.126Z,10.66
2022-10-23T04:21:29.178Z,10.68
2022-10-23T04:22:29.249Z,10.68
2022-10-23T04:23:29.113Z,10.66
2022-10-23T04:24:29.280Z,10.68
2022-10-23T04:25:29.080Z,10.70
2022-10-23T04:26:29.090Z,10.71
2022-10-23T04:27:29.084Z,10.71
2022-10-23T04:28:29.088Z,10.71
2022-10-23T04:29:29.320Z,10.74
2022-10-23T04:30:29.096Z,10.73
2022-10-23T04:31:29.073Z,10.74
2022-10-23T04:32:29.807Z,10.74
2022-10-23T04:33:29.215Z,10.76
2022-10-23T04:34:29.618Z,10.77
2022-10-23T04:35:29.026Z,10.74
2022-10-23T04:36:29.125Z,10.76
2022-10-23T04:37:29.181Z,10.76
2022-10-23T04:38:29.393Z,10.76
2022-10-23T04:39:28.983Z,10.76
2022-10-23T04:40:29.357Z,10.74
2022-10-23T04:41:29.601Z,10.76
2022-10-23T04:42:29.225Z,10.74
2022-10-23T04:43:28.916Z,10.74
2022-10-23T04:44:29.228Z,10.74
2022-10-23T04:45:29.053Z,10.74
2022-10-23T04:46:29.378Z,10.74
2022-10-23T04:47:28.947Z,10.74
2022-10-23T04:48:29.371Z,10.76
2022-10-23T04:49:29.121Z,10.73
2022-10-23T04:50:29.532Z,10.73
2022-10-23T04:51:29.473Z,10.73
2022-10-23T04:52:29.301Z,10.73
2022-10-23T04:53:28.902Z,10.71
2022-10-23T04:54:29.090Z,10.74
2022-10-23T04:55:29.346Z,10.74
2022-10-23T04:56:28.851Z,10.74
2022-10-23T04:57:28.869Z,10.74
2022-10-23T04:58:28.807Z,10.74
2022-10-23T04:59:29.028Z,10.76
2022-10-23T05:00:28.800Z,10.74
2022-10-23T05:01:28.918Z,10.76
2022-10-23T05:02:29.381Z,10.77
2022-10-23T05:03:28.820Z,10.76
2022-10-23T05:04:28.723Z,10.77
2022-10-23T05:05:28.744Z,10.76
2022-10-23T05:06:28.776Z,10.76
2022-10-23T05:07:28.783Z,10.76
2022-10-23T05:08:28.869Z,10.76
2022-10-23T05:09:29.110Z,10.76
2022-10-23T05:10:28.700Z,10.74
2022-10-23T05:11:29.836Z,10.76
2022-10-23T05:12:29.118Z,10.76
2022-10-23T05:13:28.737Z,10.76
2022-10-23T05:14:28.913Z,10.76
2022-10-23T05:15:29.172Z,10.74
2022-10-23T05:16:28.705Z,10.76
2022-10-23T05:17:28.977Z,10.77
2022-10-23T05:18:28.586Z,10.76
2022-10-23T05:19:28.560Z,10.74
2022-10-23T05:20:28.942Z,10.74
2022-10-23T05:21:28.731Z,10.73
2022-10-23T05:22:28.691Z,10.71
2022-10-23T05:23:28.635Z,10.70
2022-10-23T05:24:28.715Z,10.70
2022-10-23T05:25:28.503Z,10.71
2022-10-23T05:26:28.580Z,10.70
2022-10-23T05:27:28.620Z,10.68
2022-10-23T05:28:28.476Z,10.68
2022-10-23T05:29:28.540Z,10.68
2022-10-23T05:30:28.461Z,10.68
2022-10-23T05:31:28.957Z,10.68
2022-10-23T05:32:28.633Z,10.68
2022-10-23T05:33:28.474Z,10.68
2022-10-23T05:34:28.714Z,10.68
2022-10-23T05:35:28.687Z,10.68
2022-10-23T05:36:29.100Z,10.68
2022-10-23T05:37:28.779Z,10.68
2022-10-23T05:38:28.430Z,10.66
2022-10-23T05:39:28.394Z,10.66
2022-10-23T05:40:28.610Z,10.65
2022-10-23T05:41:28.591Z,10.65
2022-10-23T05:42:28.348Z,10.65
2022-10-23T05:43:29.256Z,10.65
2022-10-23T05:44:28.534Z,10.66
2022-10-23T05:45:28.438Z,10.66
2022-10-23T05:46:28.514Z,10.65
2022-10-23T05:47:28.372Z,10.65
2022-10-23T05:48:34.587Z,10.65
2022-10-23T05:49:28.314Z,10.65
2022-10-23T05:50:28.390Z,10.63
2022-10-23T05:51:28.290Z,10.66
2022-10-23T05:52:28.350Z,10.65
2022-10-23T05:53:28.434Z,10.63
2022-10-23T05:54:28.280Z,10.63
2022-10-23T05:55:28.611Z,10.63
2022-10-23T05:56:28.527Z,10.63
2022-10-23T05:57:28.271Z,10.63
2022-10-23T05:58:28.371Z,10.63
2022-10-23T05:59:28.716Z,10.62
2022-10-23T06:00:28.480Z,10.63
2022-10-23T06:01:28.805Z,10.63
2022-10-23T06:02:28.257Z,10.62
2022-10-23T06:03:28.230Z,10.60
2022-10-23T06:04:28.432Z,10.62
2022-10-23T06:05:28.478Z,10.60
2022-10-23T06:06:28.287Z,10.59
2022-10-23T06:07:30.109Z,10.59
2022-10-23T06:08:28.191Z,10.58
2022-10-23T06:09:28.081Z,10.59
2022-10-23T06:10:28.111Z,10.58
2022-10-23T06:11:28.086Z,10.59
2022-10-23T06:12:28.220Z,10.59
2022-10-23T06:13:28.265Z,10.58
2022-10-23T06:14:28.252Z,10.58
2022-10-23T06:15:28.550Z,10.59
2022-10-23T06:16:28.267Z,10.56
2022-10-23T06:17:28.519Z,10.59
2022-10-23T06:18:28.375Z,10.58
2022-10-23T06:19:28.149Z,10.58
2022-10-23T06:20:28.838Z,10.58
2022-10-23T06:21:28.176Z,10.58
2022-10-23T06:22:27.978Z,10.59
2022-10-23T06:23:28.992Z,10.59
2022-10-23T06:24:28.248Z,10.58
2022-10-23T06:25:28.029Z,10.58
2022-10-23T06:26:27.980Z,10.58
2022-10-23T06:27:27.925Z,10.58
2022-10-23T06:28:28.392Z,10.58
2022-10-23T06:29:27.930Z,10.58
2022-10-23T06:30:27.956Z,10.58
2022-10-23T06:31:27.851Z,10.59
2022-10-23T06:32:27.948Z,10.60
2022-10-23T06:33:27.950Z,10.60
2022-10-23T06:34:27.820Z,10.65
2022-10-23T06:35:27.961Z,10.63
2022-10-23T06:36:27.907Z,10.65
2022-10-23T06:37:28.022Z,10.66
2022-10-23T06:38:28.350Z,10.68
2022-10-23T06:39:29.883Z,10.68
2022-10-23T06:40:27.943Z,10.70
2022-10-23T06:41:27.985Z,10.71
2022-10-23T06:42:27.730Z,10.70
2022-10-23T06:43:27.871Z,10.73
2022-10-23T06:44:27.744Z,10.73
2022-10-23T06:45:27.737Z,10.73
2022-10-23T06:46:27.724Z,10.74
2022-10-23T06:47:27.740Z,10.74
2022-10-23T06:48:27.696Z,10.76
2022-10-23T06:49:27.754Z,10.77
2022-10-23T06:50:28.093Z,10.78
2022-10-23T06:51:27.921Z,10.80
2022-10-23T06:52:45.920Z,10.83
2022-10-23T06:53:27.753Z,10.83
2022-10-23T06:54:27.817Z,10.84
2022-10-23T06:55:27.968Z,10.84
2022-10-23T06:56:28.046Z,10.88
2022-10-23T06:57:27.592Z,10.89
2022-10-23T06:58:28.004Z,10.91
2022-10-23T06:59:27.847Z,10.92
2022-10-23T07:00:27.652Z,10.95
2022-10-23T07:01:27.842Z,10.96
2022-10-23T07:02:27.568Z,10.99
2022-10-23T07:03:27.575Z,11.01
2022-10-23T07:04:27.513Z,11.03
2022-10-23T07:05:27.752Z,11.06
2022-10-23T07:06:27.873Z,11.07
2022-10-23T07:07:27.569Z,11.09
2022-10-23T07:08:27.528Z,11.10
2022-10-23T07:09:27.477Z,11.11
2022-10-23T07:10:27.543Z,11.14
2022-10-23T07:11:27.502Z,11.16
2022-10-23T07:12:27.544Z,11.19
2022-10-23T07:13:27.447Z,11.19
2022-10-23T07:14:27.753Z,11.20
2022-10-23T07:15:27.464Z,11.24
2022-10-23T07:16:27.518Z,11.25
2022-10-23T07:17:27.902Z,11.27
2022-10-23T07:18:27.456Z,11.28
2022-10-23T07:19:27.364Z,11.31
2022-10-23T07:20:27.360Z,11.32
2022-10-23T07:21:27.514Z,11.34
2022-10-23T07:22:27.569Z,11.38
2022-10-23T07:23:27.518Z,11.38
2022-10-23T07:24:27.473Z,11.41
2022-10-23T07:25:27.360Z,11.44
2022-10-23T07:26:27.339Z,11.49
2022-10-23T07:27:27.547Z,11.50
2022-10-23T07:28:27.486Z,11.53
2022-10-23T07:29:27.392Z,11.56
2022-10-23T07:30:27.285Z,11.59
2022-10-23T07:31:28.323Z,11.62
2022-10-23T07:32:27.279Z,11.64
2022-10-23T07:33:27.261Z,11.68
2022-10-23T07:34:27.704Z,11.71
2022-10-23T07:35:27.310Z,11.72
2022-10-23T07:36:27.815Z,11.75
2022-10-23T07:37:27.489Z,11.80
2022-10-23T07:38:27.210Z,11.82
2022-10-23T07:39:27.527Z,11.86
2022-10-23T07:40:27.617Z,11.87
2022-10-23T07:41:27.864Z,11.93
2022-10-23T07:42:27.581Z,11.97
2022-10-23T07:43:27.216Z,11.99
2022-10-23T07:44:27.904Z,12.04
2022-10-23T07:45:27.104Z,12.06
2022-10-23T07:46:27.293Z,12.12
2022-10-23T07:47:27.470Z,12.15
2022-10-23T07:48:27.107Z,12.19
2022-10-23T07:49:27.225Z,12.21
2022-10-23T07:50:27.068Z,12.26
2022-10-23T07:51:27.276Z,12.30
2022-10-23T07:52:30.831Z,12.33
2022-10-23T07:53:27.277Z,12.38
2022-10-23T07:54:27.046Z,12.41
2022-10-23T07:55:27.060Z,12.44
2022-10-23T07:56:27.049Z,12.46
2022-10-23T07:57:27.002Z,12.51
2022-10-23T07:58:27.144Z,12.49
2022-10-23T07:59:27.631Z,12.56
2022-10-23T08:00:27.251Z,12.57
2022-10-23T08:01:27.175Z,12.60
2022-10-23T08:02:27.012Z,12.64
2022-10-23T08:03:27.125Z,12.67
2022-10-23T08:04:27.356Z,12.71
2022-10-23T08:05:26.958Z,12.77
2022-10-23T08:06:26.935Z,12.81
2022-10-23T08:07:27.450Z,12.82
2022-10-23T08:08:26.908Z,12.88
2022-10-23T08:09:27.197Z,12.89
2022-10-23T08:10:26.998Z,12.96
2022-10-23T08:11:26.942Z,12.99
2022-10-23T08:12:27.101Z,13.00
2022-10-23T08:13:26.854Z,13.06
2022-10-23T08:14:27.121Z,13.09
2022-10-23T08:15:27.319Z,13.14
2022-10-23T08:16:26.994Z,13.15
2022-10-23T08:17:28.327Z,13.21
2022-10-23T08:18:26.826Z,13.22
2022-10-23T08:19:26.814Z,13.25
2022-10-23T08:20:26.802Z,13.30
2022-10-23T08:21:27.187Z,13.37
2022-10-23T08:22:26.988Z,13.40
2022-10-23T08:23:26.790Z,13.46
2022-10-23T08:24:26.911Z,13.52
2022-10-23T08:25:26.843Z,13.56
2022-10-23T08:26:27.118Z,13.61
2022-10-23T08:27:26.740Z,13.65
2022-10-23T08:28:26.854Z,13.70
2022-10-23T08:29:26.875Z,13.74
2022-10-23T08:30:27.314Z,13.79
2022-10-23T08:31:26.772Z,13.81
2022-10-23T08:32:26.666Z,13.88
2022-10-23T08:33:26.946Z,13.91
2022-10-23T08:34:26.673Z,13.98
2022-10-23T08:35:26.692Z,14.04
2022-10-23T08:36:26.983Z,14.13
2022-10-23T08:37:26.681Z,14.19
2022-10-23T08:38:26.762Z,14.25
2022-10-23T08:39:26.820Z,14.31
2022-10-23T08:40:27.335Z,14.37
2022-10-23T08:41:26.842Z,14.44
2022-10-23T08:42:26.557Z,14.49
2022-10-23T08:43:26.925Z,14.54
2022-10-23T08:44:26.543Z,14.65
2022-10-23T08:45:26.868Z,14.71
2022-10-23T08:46:26.777Z,14.80
2022-10-23T08:47:26.542Z,14.87
2022-10-23T08:48:26.792Z,14.93
2022-10-23T08:49:26.493Z,14.99
2022-10-23T08:50:26.518Z,15.05
2022-10-23T08:51:26.470Z,15.11
2022-10-23T08:52:26.525Z,15.17
2022-10-23T08:53:26.499Z,15.24
2022-10-23T08:54:26.454Z,15.28
2022-10-23T08:55:26.502Z,15.33
2022-10-23T08:56:26.521Z,15.41
2022-10-23T08:57:26.408Z,15.45
2022-10-23T08:58:26.404Z,15.46
2022-10-23T08:59:26.460Z,15.52
2022-10-23T09:00:26.466Z,15.59
2022-10-23T09:01:27.293Z,15.63
2022-10-23T09:02:26.481Z,15.64
2022-10-23T09:03:26.904Z,15.68
2022-10-23T09:04:26.443Z,15.72
2022-10-23T09:05:26.386Z,15.75
2022-10-23T09:06:27.386Z,15.76
2022-10-23T09:07:26.332Z,15.76
2022-10-23T09:08:26.364Z,15.79
2022-10-23T09:09:26.327Z,15.78
2022-10-23T09:10:26.399Z,15.79
2022-10-23T09:11:26.320Z,15.81
2022-10-23T09:12:26.477Z,15.81
2022-10-23T09:13:26.364Z,15.82
2022-10-23T09:14:27.199Z,15.85
2022-10-23T09:15:26.237Z,15.85
2022-10-23T09:16:26.246Z,15.86
2022-10-23T09:17:26.321Z,15.89
2022-10-23T09:18:26.234Z,15.92
2022-10-23T09:19:26.536Z,15.94
2022-10-23T09:20:26.160Z,15.96
2022-10-23T09:21:26.546Z,15.99
2022-10-23T09:22:26.145Z,16.01
2022-10-23T09:23:26.155Z,16.03
2022-10-23T09:24:26.150Z,16.06
2022-10-23T09:25:26.256Z,16.09
2022-10-23T09:26:26.156Z,16.12
2022-10-23T09:27:26.148Z,16.16
2022-10-23T09:28:26.119Z,16.20
2022-10-23T09:29:26.117Z,16.25
2022-10-23T09:30:26.319Z,16.27
2022-10-23T09:31:26.109Z,16.33
2022-10-23T09:32:26.203Z,16.35
2022-10-23T09:33:26.307Z,16.37
2022-10-23T09:34:26.641Z,16.41
2022-10-23T09:35:26.270Z,16.44
2022-10-23T09:36:26.508Z,16.49
2022-10-23T09:37:26.003Z,16.50
2022-10-23T09:38:26.007Z,16.52
2022-10-23T09:39:26.166Z,16.53
2022-10-23T09:40:26.386Z,16.56
2022-10-23T09:41:26.080Z,16.60
2022-10-23T09:42:26.248Z,16.65
2022-10-23T09:43:26.119Z,16.65
2022-10-23T09:44:26.078Z,16.70
2022-10-23T09:45:26.099Z,16.75
2022-10-23T09:46:26.551Z,16.75
2022-10-23T09:47:26.059Z,16.80
2022-10-23T09:48:26.106Z,16.85
2022-10-23T09:49:26.065Z,16.89
2022-10-23T09:50:25.935Z,16.93
2022-10-23T09:51:26.030Z,16.96
2022-10-23T09:52:25.975Z,17.03
2022-10-23T09:53:26.344Z,17.04
2022-10-23T09:54:25.829Z,17.07
2022-10-23T09:55:25.820Z,17.10
2022-10-23T09:56:25.819Z,17.11
2022-10-23T09:57:25.832Z,17.14
2022-10-23T09:58:25.789Z,17.17
2022-10-23T09:59:26.191Z,17.22
2022-10-23T10:00:25.812Z,17.25
2022-10-23T10:01:25.920Z,17.29
2022-10-23T10:02:25.763Z,17.30
2022-10-23T10:03:25.777Z,17.36
2022-10-23T10:04:25.752Z,17.41
2022-10-23T10:05:26.406Z,17.47
2022-10-23T10:06:26.289Z,17.51
2022-10-23T10:07:25.756Z,17.59
2022-10-23T10:08:25.812Z,17.59
2022-10-23T10:09:25.706Z,17.63
2022-10-23T10:10:26.435Z,17.67
2022-10-23T10:11:26.046Z,17.71
2022-10-23T10:12:25.684Z,17.76
2022-10-23T10:13:25.665Z,17.79
2022-10-23T10:14:26.087Z,17.82
2022-10-23T10:15:26.045Z,17.84
2022-10-23T10:16:25.652Z,17.85
2022-10-23T10:17:25.953Z,17.87
2022-10-23T10:18:25.622Z,17.87
2022-10-23T10:19:25.924Z,17.89
2022-10-23T10:20:25.599Z,17.91
2022-10-23T10:21:25.693Z,17.91
2022-10-23T10:22:25.863Z,17.88
2022-10-23T10:23:26.499Z,17.88
2022-10-23T10:24:25.536Z,17.89
2022-10-23T10:25:25.521Z,17.89
2022-10-23T10:26:25.555Z,17.88
2022-10-23T10:27:25.485Z,17.88
2022-10-23T10:28:25.667Z,17.88
2022-10-23T10:29:25.699Z,17.91
2022-10-23T10:30:25.890Z,17.91
2022-10-23T10:31:25.497Z,17.92
2022-10-23T10:32:25.855Z,17.92
2022-10-23T10:33:25.791Z,17.94
2022-10-23T10:34:25.657Z,17.95
2022-10-23T10:35:26.204Z,17.97
2022-10-23T10:37:25.769Z,18.02
2022-10-23T10:38:26.280Z,18.04
2022-10-23T10:39:25.695Z,18.06
2022-10-23T10:40:25.571Z,18.09
2022-10-23T10:41:25.735Z,18.12
2022-10-23T10:42:25.533Z,18.13
2022-10-23T10:43:26.023Z,18.13
2022-10-23T10:44:25.495Z,18.19
2022-10-23T10:45:25.822Z,18.22
2022-10-23T10:46:25.857Z,18.24
2022-10-23T10:47:25.387Z,18.25
2022-10-23T10:48:25.331Z,18.28
2022-10-23T10:49:25.499Z,18.29
2022-10-23T10:50:25.472Z,18.31
2022-10-23T10:51:26.146Z,18.36
2022-10-23T10:52:25.281Z,18.34
2022-10-23T10:53:25.618Z,18.33
2022-10-23T10:54:25.253Z,18.37
2022-10-23T10:55:25.223Z,18.42
2022-10-23T10:56:25.233Z,18.44
2022-10-23T10:57:25.352Z,18.46
2022-10-23T10:58:25.453Z,18.47
2022-10-23T10:59:25.207Z,18.52
2022-10-23T11:00:25.260Z,18.50
2022-10-23T11:01:25.458Z,18.50
2022-10-23T11:02:25.301Z,18.49
2022-10-23T11:03:25.270Z,18.50
2022-10-23T11:04:25.159Z,18.50
2022-10-23T11:05:25.246Z,18.52
2022-10-23T11:06:25.548Z,18.49
2022-10-23T11:07:25.468Z,18.43
2022-10-23T11:08:25.317Z,18.46
2022-10-23T11:09:25.109Z,18.46
2022-10-23T11:10:25.424Z,18.47
2022-10-23T11:11:25.119Z,18.49
2022-10-23T11:12:25.098Z,18.49
2022-10-23T11:13:25.103Z,18.57
2022-10-23T11:14:25.686Z,18.61
2022-10-23T11:15:25.087Z,18.64
2022-10-23T11:16:25.127Z,18.65
2022-10-23T11:17:26.008Z,18.64
2022-10-23T11:18:25.012Z,18.64
2022-10-23T11:19:25.028Z,18.67
2022-10-23T11:20:25.392Z,18.68
2022-10-23T11:21:25.010Z,18.73
2022-10-23T11:22:25.011Z,18.77
2022-10-23T11:23:25.166Z,18.82
2022-10-23T11:24:25.330Z,18.87
2022-10-23T11:25:25.194Z,18.92
2022-10-23T11:26:24.958Z,18.97
2022-10-23T11:27:25.455Z,18.98
2022-10-23T11:28:25.111Z,19.01
2022-10-23T11:29:25.290Z,19.01
2022-10-23T11:30:24.898Z,19.05
2022-10-23T11:31:25.213Z,19.01
2022-10-23T11:32:25.080Z,18.99
2022-10-23T11:33:24.950Z,18.98
2022-10-23T11:34:25.011Z,19.01
2022-10-23T11:35:25.135Z,19.06
2022-10-23T11:36:25.171Z,19.11
2022-10-23T11:37:25.041Z,19.20
2022-10-23T11:38:25.558Z,19.29
2022-10-23T11:39:25.478Z,19.32
2022-10-23T11:40:24.866Z,19.36
2022-10-23T11:41:26.831Z,19.39
2022-10-23T11:42:25.269Z,19.46
2022-10-23T11:43:25.710Z,19.47
2022-10-23T11:44:24.779Z,19.50
2022-10-23T11:45:25.216Z,19.54
2022-10-23T11:46:24.830Z,19.55
2022-10-23T11:47:24.801Z,19.58
2022-10-23T11:48:24.888Z,19.58
2022-10-23T11:49:24.804Z,19.60
2022-10-23T11:50:24.738Z,19.60
2022-10-23T11:51:24.795Z,19.61
2022-10-23T11:52:24.652Z,19.63
2022-10-23T11:53:24.798Z,19.63
2022-10-23T11:54:25.082Z,19.58
2022-10-23T11:55:24.621Z,19.54
2022-10-23T11:56:24.881Z,19.50
2022-10-23T11:57:24.740Z,19.47
2022-10-23T11:58:24.745Z,19.46
2022-10-23T11:59:24.837Z,19.42
2022-10-23T12:00:24.823Z,19.39
2022-10-23T12:01:25.380Z,19.35
2022-10-23T12:02:24.755Z,19.28
2022-10-23T12:03:24.553Z,19.21
2022-10-23T12:04:24.972Z,19.13
2022-10-23T12:05:24.580Z,19.13
2022-10-23T12:06:24.681Z,19.08
2022-10-23T12:07:25.102Z,19.06
2022-10-23T12:08:24.475Z,19.05
2022-10-23T12:09:24.491Z,19.02
2022-10-23T12:10:24.548Z,18.99
2022-10-23T12:11:27.475Z,18.99
2022-10-23T12:12:24.443Z,18.94
2022-10-23T12:13:24.515Z,18.92
2022-10-23T12:14:24.539Z,18.91
2022-10-23T12:15:24.417Z,18.92
2022-10-23T12:16:24.423Z,18.97
2022-10-23T12:17:24.449Z,19.06
2022-10-23T12:18:24.355Z,19.17
2022-10-23T12:19:24.362Z,19.28
2022-10-23T12:20:24.496Z,19.40
2022-10-23T12:21:24.477Z,19.48
2022-10-23T12:22:24.400Z,19.60
2022-10-23T12:23:24.538Z,19.70
2022-10-23T12:24:24.339Z,19.80
2022-10-23T12:25:24.580Z,19.91
2022-10-23T12:26:24.295Z,20.05
2022-10-23T12:27:24.316Z,20.18
2022-10-23T12:28:24.389Z,20.33
2022-10-23T12:29:24.650Z,20.51
2022-10-23T12:30:24.281Z,20.59
2022-10-23T12:31:24.470Z,20.71
2022-10-23T12:32:24.371Z,20.86
2022-10-23T12:33:24.536Z,20.96
2022-10-23T12:34:24.357Z,20.99
2022-10-23T12:35:24.269Z,21.09
2022-10-23T12:36:24.363Z,21.21
2022-10-23T12:37:24.359Z,21.30
2022-10-23T12:38:24.203Z,21.32
2022-10-23T12:39:24.337Z,21.30
2022-10-23T12:40:24.305Z,21.30
2022-10-23T12:41:24.322Z,21.20
2022-10-23T12:42:24.335Z,21.14
2022-10-23T12:43:24.180Z,21.08
2022-10-23T12:44:24.507Z,20.96
2022-10-23T12:45:24.354Z,20.80
2022-10-23T12:46:24.244Z,20.65
2022-10-23T12:47:24.364Z,20.61
2022-10-23T12:48:24.138Z,20.61
2022-10-23T12:49:24.204Z,20.56
2022-10-23T12:50:24.270Z,20.56
2022-10-23T12:51:24.300Z,20.53
2022-10-23T12:52:24.443Z,20.53
2022-10-23T12:53:24.091Z,20.54
2022-10-23T12:54:24.281Z,20.53
2022-10-23T12:55:24.094Z,20.47